Rms Voerde — V2AD8 — position and weather

sailwx.info

Track history (hours):
 
Tides and Currents Weather Stations Pressure Air Temp Water Temp Dewpoint Dewpoint Depression Visibility Wind Speed Wind Dir Waves Ship Positions

Rms Voerde

Last reported at 2017-Jul-21 21:54 UTC. Time now 2017-Jul-22 08:42 UTC.
Position N 53°58' E 000°47'.

Length 90 m; draft 3.6 m.

Type: Ship. MMSI: 304010905.

Date/timePositionNaut miles runAvg speedWind from/ knotsBaromVisibWave heightAir tempDewpointWater temp
2017-Jul-21 21:54N 53°58' E 000°47'511.6
2017-Jul-21 21:28N 53°53' E 000°45'  
2017-Jul-19 05:07N 53°35' E 000°04'210.7
2017-Jul-19 04:56N 53°35' E 000°01'612.9
2017-Jul-19 04:29N 53°38' W 000°08'613.0
2017-Jul-19 04:00N 53°43' W 000°14'611.8
2017-Jul-19 03:30N 53°42' W 000°25'  
2017-Jul-16 09:07N 53°42' W 000°26'110.7
2017-Jul-16 09:00N 53°42' W 000°23'5 9.8
2017-Jul-16 08:30N 53°43' W 000°15'5 9.4
2017-Jul-16 08:00N 53°39' W 000°11'5 9.9
2017-Jul-16 07:29N 53°37' W 000°04'  
2017-Jul-14 03:01N 53°55' E 008°41'0 9.2
2017-Jul-14 03:00N 53°55' E 008°41'4 8.9
2017-Jul-14 02:30N 53°51' E 008°45'4 7.9
2017-Jul-14 02:00N 53°51' E 008°52'4 8.0
2017-Jul-14 01:30N 53°51' E 008°58'4 7.9
2017-Jul-14 01:00N 53°52' E 009°05'3 5.1
2017-Jul-14 00:30N 53°54' E 009°09'1 1.1
2017-Jul-14 00:00N 53°54' E 009°09'0 0.3
2017-Jul-13 23:31N 53°54' E 009°09'0 0.5
2017-Jul-13 23:00N 53°54' E 009°09'0 0.0
2017-Jul-13 22:30N 53°54' E 009°09'0 0.0
2017-Jul-13 22:00N 53°54' E 009°09'0 0.0
2017-Jul-13 21:30N 53°54' E 009°09'0 0.0
2017-Jul-13 21:00N 53°54' E 009°09'0 0.0
2017-Jul-13 20:30N 53°54' E 009°09'0 0.0
2017-Jul-13 20:01N 53°54' E 009°09'2 4.1
2017-Jul-13 19:30N 53°55' E 009°11'4 8.7
2017-Jul-13 19:00N 53°59' E 009°16'4 8.7
2017-Jul-13 18:30N 54°03' E 009°18'55 6.3
2017-Jul-13 09:44N 54°34' E 010°36'2 9.9
2017-Jul-13 09:30N 54°35' E 010°40'5 9.7
2017-Jul-13 09:00N 54°35' E 010°48'5 9.3
2017-Jul-13 08:30N 54°36' E 010°56'5 9.1
2017-Jul-13 08:00N 54°36' E 011°04'4 8.6
2017-Jul-13 07:30N 54°36' E 011°11'4 8.7
2017-Jul-13 07:00N 54°34' E 011°18'4 8.4
2017-Jul-13 06:30N 54°32' E 011°25'4 8.5
2017-Jul-13 06:00N 54°31' E 011°32'4 9.0
2017-Jul-13 05:31N 54°29' E 011°39'5 9.0
2017-Jul-13 05:00N 54°27' E 011°46'7 9.3
2017-Jul-13 04:17N 54°27' E 011°58'2 9.0
2017-Jul-13 04:00N 54°27' E 012°02'4 8.9
2017-Jul-13 03:30N 54°28' E 012°09'510.1
2017-Jul-13 03:00N 54°33' E 012°12'510.3
2017-Jul-13 02:30N 54°37' E 012°16'510.2
2017-Jul-13 02:00N 54°40' E 012°23'1210.1
2017-Jul-13 00:46N 54°47' E 012°41'4710.2
2017-Jul-12 20:13N 55°03' E 013°57'1710.3
2017-Jul-12 18:36N 55°15' E 014°18'110.5
2017-Jul-12 18:29N 55°16' E 014°19'510.6
2017-Jul-12 18:00N 55°20' E 014°25'510.6
2017-Jul-12 17:30N 55°24' E 014°31'510.4
2017-Jul-12 17:00N 55°28' E 014°37'510.2
2017-Jul-12 16:30N 55°31' E 014°45'510.2
2017-Jul-12 16:00N 55°33' E 014°53'510.3
2017-Jul-12 15:30N 55°36' E 015°01'510.6
2017-Jul-12 15:00N 55°38' E 015°08'1110.6
2017-Jul-12 14:00N 55°44' E 015°25'510.7
2017-Jul-12 13:30N 55°46' E 015°33'510.7
2017-Jul-12 13:00N 55°49' E 015°41'510.5
2017-Jul-12 12:30N 55°52' E 015°49'510.4
2017-Jul-12 12:00N 55°54' E 015°57'510.4
2017-Jul-12 11:30N 55°57' E 016°05'510.4
2017-Jul-12 11:00N 55°59' E 016°13'510.4
2017-Jul-12 10:30N 56°02' E 016°22'510.5
2017-Jul-12 10:00N 56°04' E 016°30'510.4
2017-Jul-12 09:30N 56°07' E 016°38'510.3
2017-Jul-12 09:00N 56°10' E 016°45'610.3
2017-Jul-12 08:22N 56°14' E 016°54'2310.2
2017-Jul-12 06:08N 56°28' E 017°27'210.3
2017-Jul-12 05:54N 56°30' E 017°30'410.3
2017-Jul-12 05:30N 56°32' E 017°36'510.4
2017-Jul-12 05:00N 56°35' E 017°44'  
Track history (hours):
 
Tides and Currents Weather Stations Pressure Air Temp Water Temp Dewpoint Dewpoint Depression Visibility Wind Speed Wind Dir Waves Ship Positions

Rms Voerde

Last reported at 2017-Jul-21 21:54 UTC. Time now 2017-Jul-22 08:42 UTC.
Position N 53°58' E 000°47'.

Length 90 m; draft 3.6 m.

Type: Ship. MMSI: 304010905.

Date/timePositionNaut miles runAvg speedWind from/ knotsBaromVisibWave heightAir tempDewpointWater temp
2017-Jul-21 21:54N 53°58' E 000°47'511.6
2017-Jul-21 21:28N 53°53' E 000°45'  
2017-Jul-19 05:07N 53°35' E 000°04'210.7
2017-Jul-19 04:56N 53°35' E 000°01'612.9
2017-Jul-19 04:29N 53°38' W 000°08'613.0
2017-Jul-19 04:00N 53°43' W 000°14'611.8
2017-Jul-19 03:30N 53°42' W 000°25'  
2017-Jul-16 09:07N 53°42' W 000°26'110.7
2017-Jul-16 09:00N 53°42' W 000°23'5 9.8
2017-Jul-16 08:30N 53°43' W 000°15'5 9.4
2017-Jul-16 08:00N 53°39' W 000°11'5 9.9
2017-Jul-16 07:29N 53°37' W 000°04'  
2017-Jul-14 03:01N 53°55' E 008°41'0 9.2
2017-Jul-14 03:00N 53°55' E 008°41'4 8.9
2017-Jul-14 02:30N 53°51' E 008°45'4 7.9
2017-Jul-14 02:00N 53°51' E 008°52'4 8.0
2017-Jul-14 01:30N 53°51' E 008°58'4 7.9
2017-Jul-14 01:00N 53°52' E 009°05'3 5.1
2017-Jul-14 00:30N 53°54' E 009°09'1 1.1
2017-Jul-14 00:00N 53°54' E 009°09'0 0.3
2017-Jul-13 23:31N 53°54' E 009°09'0 0.5
2017-Jul-13 23:00N 53°54' E 009°09'0 0.0
2017-Jul-13 22:30N 53°54' E 009°09'0 0.0
2017-Jul-13 22:00N 53°54' E 009°09'0 0.0
2017-Jul-13 21:30N 53°54' E 009°09'0 0.0
2017-Jul-13 21:00N 53°54' E 009°09'0 0.0
2017-Jul-13 20:30N 53°54' E 009°09'0 0.0
2017-Jul-13 20:01N 53°54' E 009°09'2 4.1
2017-Jul-13 19:30N 53°55' E 009°11'4 8.7
2017-Jul-13 19:00N 53°59' E 009°16'4 8.7
2017-Jul-13 18:30N 54°03' E 009°18'55 6.3
2017-Jul-13 09:44N 54°34' E 010°36'2 9.9
2017-Jul-13 09:30N 54°35' E 010°40'5 9.7
2017-Jul-13 09:00N 54°35' E 010°48'5 9.3
2017-Jul-13 08:30N 54°36' E 010°56'5 9.1
2017-Jul-13 08:00N 54°36' E 011°04'4 8.6
2017-Jul-13 07:30N 54°36' E 011°11'4 8.7
2017-Jul-13 07:00N 54°34' E 011°18'4 8.4
2017-Jul-13 06:30N 54°32' E 011°25'4 8.5
2017-Jul-13 06:00N 54°31' E 011°32'4 9.0
2017-Jul-13 05:31N 54°29' E 011°39'5 9.0
2017-Jul-13 05:00N 54°27' E 011°46'7 9.3
2017-Jul-13 04:17N 54°27' E 011°58'2 9.0
2017-Jul-13 04:00N 54°27' E 012°02'4 8.9
2017-Jul-13 03:30N 54°28' E 012°09'510.1
2017-Jul-13 03:00N 54°33' E 012°12'510.3
2017-Jul-13 02:30N 54°37' E 012°16'510.2
2017-Jul-13 02:00N 54°40' E 012°23'1210.1
2017-Jul-13 00:46N 54°47' E 012°41'4710.2
2017-Jul-12 20:13N 55°03' E 013°57'1710.3
2017-Jul-12 18:36N 55°15' E 014°18'110.5
2017-Jul-12 18:29N 55°16' E 014°19'510.6
2017-Jul-12 18:00N 55°20' E 014°25'510.6
2017-Jul-12 17:30N 55°24' E 014°31'510.4
2017-Jul-12 17:00N 55°28' E 014°37'510.2
2017-Jul-12 16:30N 55°31' E 014°45'510.2
2017-Jul-12 16:00N 55°33' E 014°53'510.3
2017-Jul-12 15:30N 55°36' E 015°01'510.6
2017-Jul-12 15:00N 55°38' E 015°08'1110.6
2017-Jul-12 14:00N 55°44' E 015°25'510.7
2017-Jul-12 13:30N 55°46' E 015°33'510.7
2017-Jul-12 13:00N 55°49' E 015°41'510.5
2017-Jul-12 12:30N 55°52' E 015°49'510.4
2017-Jul-12 12:00N 55°54' E 015°57'510.4
2017-Jul-12 11:30N 55°57' E 016°05'510.4
2017-Jul-12 11:00N 55°59' E 016°13'510.4
2017-Jul-12 10:30N 56°02' E 016°22'510.5
2017-Jul-12 10:00N 56°04' E 016°30'510.4
2017-Jul-12 09:30N 56°07' E 016°38'510.3
2017-Jul-12 09:00N 56°10' E 016°45'610.3
2017-Jul-12 08:22N 56°14' E 016°54'2310.2
2017-Jul-12 06:08N 56°28' E 017°27'210.3
2017-Jul-12 05:54N 56°30' E 017°30'410.3
2017-Jul-12 05:30N 56°32' E 017°36'510.4
2017-Jul-12 05:00N 56°35' E 017°44'  

Dump ship's entire track history